createdAt,value
2022-09-14T00:01:27.813Z,100436.25
2022-09-14T00:03:55.895Z,100439.56
2022-09-14T00:06:24.061Z,100437.69
2022-09-14T00:08:52.713Z,100447.69
2022-09-14T00:11:21.152Z,100441.03
2022-09-14T00:13:48.386Z,100436.47
2022-09-14T00:16:17.789Z,100436.97
2022-09-14T00:18:45.605Z,100426.47
2022-09-14T00:21:13.029Z,100425.72
2022-09-14T00:23:41.172Z,100426.47
2022-09-14T00:26:10.127Z,100419.69
2022-09-14T00:28:42.243Z,100405.38
2022-09-14T00:31:09.947Z,100413.00
2022-09-14T00:34:11.577Z,100406.00
2022-09-14T00:36:40.398Z,100411.31
2022-09-14T00:39:08.749Z,100411.19
2022-09-14T00:41:37.376Z,100415.88
2022-09-14T00:44:04.609Z,100415.00
2022-09-14T00:46:42.370Z,100415.63
2022-09-14T00:49:24.165Z,100414.03
2022-09-14T00:51:54.395Z,100422.41
2022-09-14T00:54:21.750Z,100416.97
2022-09-14T00:56:49.492Z,100417.56
2022-09-14T00:59:20.657Z,100411.38
2022-09-14T01:01:48.355Z,100411.34
2022-09-14T01:04:15.629Z,100406.03
2022-09-14T01:06:54.904Z,100403.34
2022-09-14T01:09:34.105Z,100407.75
2022-09-14T01:12:04.353Z,100400.03
2022-09-14T01:14:31.857Z,100392.63
2022-09-14T01:17:06.814Z,100382.53
2022-09-14T01:19:34.202Z,100381.41
2022-09-14T01:22:06.418Z,100375.97
2022-09-14T01:24:33.577Z,100376.81
2022-09-14T01:27:19.454Z,100377.81
2022-09-14T01:29:55.238Z,100372.25
2022-09-14T01:32:41.042Z,100365.50
2022-09-14T01:35:34.511Z,100361.56
2022-09-14T01:38:04.057Z,100362.53
2022-09-14T01:40:37.344Z,100350.72
2022-09-14T01:43:15.136Z,100346.28
2022-09-14T01:45:45.329Z,100345.44
2022-09-14T01:48:15.312Z,100344.69
2022-09-14T01:50:51.289Z,100346.66
2022-09-14T01:53:28.623Z,100343.56
2022-09-14T01:56:02.968Z,100342.38
2022-09-14T01:58:30.119Z,100342.25
2022-09-14T02:00:59.435Z,100330.78
2022-09-14T02:03:29.887Z,100340.63
2022-09-14T02:08:27.428Z,100333.97
2022-09-14T02:10:54.692Z,100334.59
2022-09-14T02:13:21.933Z,100326.97
2022-09-14T02:15:49.208Z,100326.44
2022-09-14T02:18:16.782Z,100322.88
2022-09-14T02:20:48.833Z,100321.75
2022-09-14T02:23:17.211Z,100319.69
2022-09-14T02:25:44.977Z,100311.56
2022-09-14T02:28:12.573Z,100298.88
2022-09-14T02:31:00.209Z,100293.78
2022-09-14T02:33:30.450Z,100286.66
2022-09-14T02:36:02.269Z,100288.88
2022-09-14T02:38:35.869Z,100288.50
2022-09-14T02:41:06.804Z,100277.78
2022-09-14T02:43:48.148Z,100277.19
2022-09-14T02:46:38.600Z,100278.25
2022-09-14T02:49:12.420Z,100295.91
2022-09-14T02:51:58.529Z,100304.63
2022-09-14T02:54:31.888Z,100304.88
2022-09-14T02:57:02.529Z,100309.31
2022-09-14T02:59:30.173Z,100306.88
2022-09-14T03:01:59.050Z,100306.75
2022-09-14T03:04:26.355Z,100308.28
2022-09-14T03:06:53.586Z,100298.91
2022-09-14T03:09:20.801Z,100301.56
2022-09-14T03:11:48.003Z,100289.38
2022-09-14T03:14:15.229Z,100292.59
2022-09-14T03:16:42.425Z,100293.94
2022-09-14T03:19:12.244Z,100277.22
2022-09-14T03:21:39.915Z,100284.09
2022-09-14T03:24:07.659Z,100289.31
2022-09-14T03:26:36.979Z,100282.09
2022-09-14T03:29:05.545Z,100278.56
2022-09-14T03:31:33.585Z,100271.69
2022-09-14T03:34:38.302Z,100257.63
2022-09-14T03:37:06.420Z,100261.44
2022-09-14T03:39:33.618Z,100271.91
2022-09-14T03:42:00.820Z,100278.13
2022-09-14T03:44:28.121Z,100277.97
2022-09-14T03:46:55.297Z,100277.25
2022-09-14T03:49:22.469Z,100281.53
2022-09-14T03:51:49.678Z,100275.38
2022-09-14T03:54:17.001Z,100277.81
2022-09-14T03:56:44.172Z,100285.44
2022-09-14T03:59:11.377Z,100276.22
2022-09-14T04:01:38.579Z,100284.22
2022-09-14T04:04:05.992Z,100294.84
2022-09-14T04:06:33.166Z,100283.31
2022-09-14T04:09:00.350Z,100284.25
2022-09-14T04:11:28.956Z,100283.78
2022-09-14T04:13:56.109Z,100280.44
2022-09-14T04:16:23.386Z,100279.72
2022-09-14T04:18:50.603Z,100282.41
2022-09-14T04:21:19.263Z,100288.88
2022-09-14T04:24:10.503Z,100292.16
2022-09-14T04:26:34.255Z,100298.22
2022-09-14T04:29:01.705Z,100295.94
2022-09-14T04:31:30.167Z,100304.78
2022-09-14T04:33:57.477Z,100303.84
2022-09-14T04:36:28.784Z,100296.59
2022-09-14T04:38:59.007Z,100314.50
2022-09-14T04:41:26.620Z,100311.97
2022-09-14T04:43:54.468Z,100318.78
2022-09-14T04:46:26.136Z,100311.78
2022-09-14T04:48:53.706Z,100301.47
2022-09-14T04:51:22.740Z,100299.56
2022-09-14T04:53:51.236Z,100306.84
2022-09-14T04:56:19.564Z,100312.34
2022-09-14T04:58:51.472Z,100322.75
2022-09-14T05:01:22.638Z,100316.53
2022-09-14T05:03:50.529Z,100309.94
2022-09-14T05:06:21.837Z,100309.38
2022-09-14T05:08:49.602Z,100312.31
2022-09-14T05:11:18.595Z,100302.34
2022-09-14T05:13:49.670Z,100304.97
2022-09-14T05:16:22.300Z,100315.13
2022-09-14T05:18:50.381Z,100309.94
2022-09-14T05:21:18.722Z,100315.88
2022-09-14T05:23:46.737Z,100317.72
2022-09-14T05:26:14.606Z,100313.94
2022-09-14T05:28:41.868Z,100298.69
2022-09-14T05:31:10.203Z,100306.16
2022-09-14T05:33:37.544Z,100296.84
2022-09-14T05:36:06.149Z,100311.66
2022-09-14T05:38:34.553Z,100311.97
2022-09-14T05:41:01.889Z,100309.06
2022-09-14T05:43:29.584Z,100318.47
2022-09-14T05:46:00.698Z,100307.19
2022-09-14T05:48:30.784Z,100309.47
2022-09-14T05:50:59.158Z,100291.28
2022-09-14T05:53:26.733Z,100294.75
2022-09-14T05:56:06.971Z,100295.09
2022-09-14T05:58:36.348Z,100298.31
2022-09-14T06:01:09.805Z,100296.28
2022-09-14T06:03:37.183Z,100295.16
2022-09-14T06:06:05.476Z,100292.88
2022-09-14T06:08:33.421Z,100278.34
2022-09-14T06:11:08.042Z,100267.41
2022-09-14T06:13:35.741Z,100261.13
2022-09-14T06:16:13.334Z,100262.88
2022-09-14T06:18:41.250Z,100260.44
2022-09-14T06:21:09.265Z,100258.25
2022-09-14T06:23:36.919Z,100262.31
2022-09-14T06:26:04.892Z,100251.97
2022-09-14T06:28:32.633Z,100251.47
2022-09-14T06:31:00.247Z,100247.81
2022-09-14T06:33:27.464Z,100252.13
2022-09-14T06:35:58.864Z,100268.53
2022-09-14T06:38:26.835Z,100278.25
2022-09-14T06:40:53.947Z,100275.94
2022-09-14T06:43:21.177Z,100281.47
2022-09-14T06:46:04.841Z,100296.00
2022-09-14T06:48:34.369Z,100306.34
2022-09-14T06:51:10.580Z,100309.41
2022-09-14T06:53:37.716Z,100313.63
2022-09-14T06:56:05.203Z,100309.19
2022-09-14T06:58:33.890Z,100306.84
2022-09-14T07:01:01.943Z,100292.94
2022-09-14T07:03:29.125Z,100294.63
2022-09-14T07:06:06.573Z,100298.56
2022-09-14T07:08:34.668Z,100308.44
2022-09-14T07:11:01.858Z,100309.56
2022-09-14T07:13:29.850Z,100314.47
2022-09-14T07:15:57.048Z,100330.63
2022-09-14T07:18:30.033Z,100340.34
2022-09-14T07:21:05.295Z,100333.78
2022-09-14T07:23:33.750Z,100348.34
2022-09-14T07:26:01.928Z,100362.03
2022-09-14T07:28:29.068Z,100370.84
2022-09-14T07:30:59.026Z,100385.31
2022-09-14T07:33:26.746Z,100389.63
2022-09-14T07:35:54.824Z,100395.91
2022-09-14T07:38:41.517Z,100403.81
2022-09-14T07:41:09.394Z,100412.28
2022-09-14T07:43:36.630Z,100414.50
2022-09-14T07:46:04.653Z,100425.22
2022-09-14T07:48:33.061Z,100426.63
2022-09-14T07:51:00.934Z,100438.63
2022-09-14T07:53:28.598Z,100434.31
2022-09-14T07:55:58.456Z,100453.09
2022-09-14T07:58:25.849Z,100466.81
2022-09-14T08:00:57.499Z,100458.88
2022-09-14T08:03:24.729Z,100456.25
2022-09-14T08:06:01.776Z,100456.69
2022-09-14T08:08:30.494Z,100452.94
2022-09-14T08:11:08.363Z,100452.97
2022-09-14T08:13:35.802Z,100449.19
2022-09-14T08:16:03.510Z,100454.97
2022-09-14T08:18:31.259Z,100453.00
2022-09-14T08:21:03.349Z,100445.03
2022-09-14T08:23:30.543Z,100451.19
2022-09-14T08:26:01.902Z,100450.38
2022-09-14T08:28:29.075Z,100455.66
2022-09-14T08:30:56.319Z,100449.66
2022-09-14T08:33:23.544Z,100450.72
2022-09-14T08:35:58.492Z,100459.31
2022-09-14T08:38:25.800Z,100460.31
2022-09-14T08:40:53.239Z,100455.16
2022-09-14T08:43:22.980Z,100442.97
2022-09-14T08:45:51.110Z,100448.19
2022-09-14T08:48:26.881Z,100442.34
2022-09-14T08:50:54.376Z,100447.72
2022-09-14T08:53:24.502Z,100452.38
2022-09-14T08:55:54.519Z,100450.66
2022-09-14T08:58:31.110Z,100455.47
2022-09-14T09:01:08.788Z,100450.50
2022-09-14T09:03:42.266Z,100449.19
2022-09-14T09:06:15.784Z,100450.69
2022-09-14T09:08:49.495Z,100447.84
2022-09-14T09:11:21.413Z,100453.44
2022-09-14T09:13:49.941Z,100455.44
2022-09-14T09:16:18.827Z,100460.25
2022-09-14T09:18:48.142Z,100464.78
2022-09-14T09:21:35.681Z,100476.25
2022-09-14T09:24:16.553Z,100477.97
2022-09-14T09:26:43.698Z,100470.16
2022-09-14T09:29:11.593Z,100478.09
2022-09-14T09:31:59.120Z,100483.56
2022-09-14T09:34:48.185Z,100504.84
2022-09-14T09:37:46.527Z,100494.03
2022-09-14T09:40:15.571Z,100506.44
2022-09-14T09:43:03.140Z,100500.41
2022-09-14T09:45:46.467Z,100477.53
2022-09-14T09:48:14.835Z,100474.78
2022-09-14T09:51:01.430Z,100463.72
2022-09-14T09:53:29.141Z,100456.91
2022-09-14T09:55:56.635Z,100454.66
2022-09-14T09:58:28.292Z,100435.94
2022-09-14T10:01:00.381Z,100427.50
2022-09-14T10:03:31.908Z,100410.03
2022-09-14T10:06:02.091Z,100411.75
2022-09-14T10:08:34.813Z,100401.84
2022-09-14T10:11:03.430Z,100394.38
2022-09-14T10:13:36.436Z,100372.28
2022-09-14T10:16:15.005Z,100365.47
2022-09-14T10:18:48.246Z,100345.38
2022-09-14T10:21:18.773Z,100334.31
2022-09-14T10:23:46.273Z,100319.38
2022-09-14T10:26:17.163Z,100307.59
2022-09-14T10:28:45.830Z,100296.56
2022-09-14T10:31:17.128Z,100285.63
2022-09-14T10:33:48.441Z,100257.84
2022-09-14T10:36:31.021Z,100251.38
2022-09-14T10:39:25.890Z,100236.34
2022-09-14T10:41:57.697Z,100226.66
2022-09-14T10:44:44.031Z,100213.88
2022-09-14T10:47:21.500Z,100213.66
2022-09-14T10:50:07.019Z,100215.41
2022-09-14T10:52:50.465Z,100214.56
2022-09-14T10:55:37.036Z,100214.94
2022-09-14T10:58:04.421Z,100224.56
2022-09-14T11:00:38.672Z,100235.31
2022-09-14T11:03:24.259Z,100259.13
2022-09-14T11:06:06.556Z,100281.59
2022-09-14T11:08:40.018Z,100275.50
2022-09-14T11:11:27.495Z,100271.00
2022-09-14T11:14:02.214Z,100268.38
2022-09-14T11:16:32.556Z,100251.25
2022-09-14T11:19:23.094Z,100240.44
2022-09-14T11:21:53.353Z,100220.31
2022-09-14T11:24:33.399Z,100212.13
2022-09-14T11:27:03.231Z,100182.28
2022-09-14T11:29:33.025Z,100178.38
2022-09-14T11:32:20.366Z,100149.75
2022-09-14T11:37:52.595Z,100160.03
2022-09-14T11:40:25.014Z,100177.84
2022-09-14T11:42:58.387Z,100191.34
2022-09-14T11:45:37.296Z,100196.69
2022-09-14T11:48:42.263Z,100214.47
2022-09-14T11:51:16.718Z,100232.03
2022-09-14T11:53:44.086Z,100243.81
2022-09-14T11:56:30.695Z,100255.59
2022-09-14T11:59:04.168Z,100265.38
2022-09-14T12:01:31.599Z,100259.53
2022-09-14T12:04:02.012Z,100249.78
2022-09-14T12:06:32.074Z,100209.44
2022-09-14T12:09:11.202Z,100219.19
2022-09-14T12:11:38.537Z,100183.94
2022-09-14T12:14:23.709Z,100190.66
2022-09-14T12:17:28.979Z,100225.38
2022-09-14T12:19:59.623Z,100232.09
2022-09-14T12:22:32.578Z,100231.31
2022-09-14T12:25:08.640Z,100214.69
2022-09-14T12:27:40.257Z,100204.97
2022-09-14T12:30:26.325Z,100204.47
2022-09-14T12:32:53.472Z,100209.84
2022-09-14T12:35:32.789Z,100206.75
2022-09-14T12:38:00.849Z,100207.03
2022-09-14T12:40:36.414Z,100207.91
2022-09-14T12:43:22.326Z,100216.25
2022-09-14T12:46:00.947Z,100230.06
2022-09-14T12:48:48.514Z,100217.59
2022-09-14T12:51:15.707Z,100215.19
2022-09-14T12:53:43.794Z,100217.44
2022-09-14T12:56:18.929Z,100226.41
2022-09-14T12:58:53.544Z,100216.06
2022-09-14T13:01:28.697Z,100213.56
2022-09-14T13:03:57.005Z,100200.16
2022-09-14T13:06:26.987Z,100209.72
2022-09-14T13:08:56.657Z,100212.13
2022-09-14T13:11:42.127Z,100215.34
2022-09-14T13:14:19.096Z,100209.38
2022-09-14T13:16:47.973Z,100201.63
2022-09-14T13:19:28.893Z,100196.50
2022-09-14T13:21:57.305Z,100191.88
2022-09-14T13:24:42.635Z,100187.44
2022-09-14T13:27:28.889Z,100187.72
2022-09-14T13:30:05.150Z,100187.91
2022-09-14T13:32:34.080Z,100184.16
2022-09-14T13:35:03.991Z,100186.88
2022-09-14T13:37:31.573Z,100190.00
2022-09-14T13:39:59.091Z,100185.41
2022-09-14T13:42:26.563Z,100191.88
2022-09-14T13:44:53.829Z,100186.56
2022-09-14T13:47:22.420Z,100184.69
2022-09-14T13:49:50.706Z,100164.84
2022-09-14T13:52:34.011Z,100167.75
2022-09-14T13:55:22.112Z,100166.91
2022-09-14T13:58:13.161Z,100183.63
2022-09-14T14:01:00.715Z,100181.50
2022-09-14T14:03:29.401Z,100176.53
2022-09-14T14:05:57.182Z,100180.44
2022-09-14T14:08:24.544Z,100182.63
2022-09-14T14:10:54.041Z,100181.59
2022-09-14T14:13:24.714Z,100177.00
2022-09-14T14:15:53.745Z,100170.66
2022-09-14T14:18:36.163Z,100166.38
2022-09-14T14:21:04.474Z,100164.84
2022-09-14T14:23:31.671Z,100160.56
2022-09-14T14:26:07.017Z,100159.66
2022-09-14T14:28:34.328Z,100167.00
2022-09-14T14:31:09.972Z,100158.56
2022-09-14T14:33:43.853Z,100161.59
2022-09-14T14:36:10.999Z,100168.25
2022-09-14T14:38:45.075Z,100159.50
2022-09-14T14:41:14.235Z,100169.75
2022-09-14T14:43:42.188Z,100160.81
2022-09-14T14:46:09.550Z,100153.81
2022-09-14T14:48:37.204Z,100151.56
2022-09-14T14:51:05.233Z,100154.22
2022-09-14T14:53:32.437Z,100157.22
2022-09-14T14:55:59.683Z,100146.94
2022-09-14T14:58:26.979Z,100148.13
2022-09-14T15:00:54.857Z,100148.25
2022-09-14T15:03:22.294Z,100153.72
2022-09-14T15:05:49.696Z,100156.59
2022-09-14T15:08:17.869Z,100159.81
2022-09-14T15:10:45.891Z,100154.78
2022-09-14T15:13:13.348Z,100157.84
2022-09-14T15:15:42.952Z,100173.34
2022-09-14T15:18:10.262Z,100166.34
2022-09-14T15:20:37.642Z,100178.13
2022-09-14T15:23:04.922Z,100181.84
2022-09-14T15:25:32.343Z,100181.84
2022-09-14T15:28:00.125Z,100182.56
2022-09-14T15:30:27.397Z,100182.41
2022-09-14T15:32:54.670Z,100181.38
2022-09-14T15:35:54.993Z,100183.25
2022-09-14T15:38:22.444Z,100169.94
2022-09-14T15:40:49.695Z,100171.22
2022-09-14T15:43:17.112Z,100161.78
2022-09-14T15:45:44.425Z,100162.22
2022-09-14T15:48:12.877Z,100163.38
2022-09-14T15:50:44.431Z,100180.19
2022-09-14T15:53:12.594Z,100186.28
2022-09-14T15:55:44.108Z,100178.84
2022-09-14T15:58:11.628Z,100173.38
2022-09-14T16:00:42.443Z,100170.22
2022-09-14T16:03:09.688Z,100187.81
2022-09-14T16:05:38.053Z,100181.91
2022-09-14T16:08:05.193Z,100178.97
2022-09-14T16:10:32.513Z,100180.41
2022-09-14T16:12:59.720Z,100177.44
2022-09-14T16:15:26.918Z,100165.53
2022-09-14T16:17:55.436Z,100154.88
2022-09-14T16:20:23.160Z,100147.44
2022-09-14T16:22:50.732Z,100135.53
2022-09-14T16:25:18.387Z,100131.47
2022-09-14T16:27:45.651Z,100136.91
2022-09-14T16:30:13.036Z,100141.75
2022-09-14T16:32:40.272Z,100136.41
2022-09-14T16:35:08.431Z,100138.06
2022-09-14T16:37:35.836Z,100138.53
2022-09-14T16:40:03.704Z,100133.69
2022-09-14T16:42:30.973Z,100126.97
2022-09-14T16:44:58.159Z,100118.81
2022-09-14T16:47:25.792Z,100108.69
2022-09-14T16:49:53.299Z,100098.34
2022-09-14T16:52:20.494Z,100108.41
2022-09-14T16:54:47.710Z,100102.25
2022-09-14T16:57:14.910Z,100094.22
2022-09-14T16:59:42.165Z,100094.34
2022-09-14T17:02:12.543Z,100104.63
2022-09-14T17:04:39.819Z,100092.69
2022-09-14T17:07:07.223Z,100100.44
2022-09-14T17:09:34.429Z,100080.91
2022-09-14T17:12:01.761Z,100080.50
2022-09-14T17:14:30.728Z,100088.53
2022-09-14T17:16:58.702Z,100088.97
2022-09-14T17:19:26.783Z,100084.56
2022-09-14T17:21:54.217Z,100061.59
2022-09-14T17:24:21.768Z,100059.53
2022-09-14T17:26:49.465Z,100053.25
2022-09-14T17:29:16.753Z,100056.34
2022-09-14T17:31:44.892Z,100045.34
2022-09-14T17:34:13.452Z,100057.41
2022-09-14T17:36:40.765Z,100061.28
2022-09-14T17:39:11.912Z,100064.84
2022-09-14T17:41:40.278Z,100062.69
2022-09-14T17:44:10.587Z,100063.13
2022-09-14T17:46:45.989Z,100069.31
2022-09-14T17:49:16.143Z,100073.75
2022-09-14T17:51:45.253Z,100081.34
2022-09-14T17:54:13.281Z,100083.75
2022-09-14T17:56:41.012Z,100077.59
2022-09-14T17:59:10.969Z,100081.06
2022-09-14T18:01:38.269Z,100080.47
2022-09-14T18:04:07.489Z,100083.75
2022-09-14T18:06:36.008Z,100086.19
2022-09-14T18:09:07.882Z,100076.91
2022-09-14T18:11:36.415Z,100086.50
2022-09-14T18:14:04.033Z,100078.63
2022-09-14T18:16:31.718Z,100072.19
2022-09-14T18:18:59.158Z,100080.34
2022-09-14T18:21:26.459Z,100089.06
2022-09-14T18:23:54.395Z,100089.22
2022-09-14T18:26:22.324Z,100094.94
2022-09-14T18:28:50.966Z,100092.09
2022-09-14T18:31:19.902Z,100092.09
2022-09-14T18:33:52.044Z,100094.09
2022-09-14T18:36:20.179Z,100090.06
2022-09-14T18:38:48.665Z,100092.09
2022-09-14T18:41:16.604Z,100097.06
2022-09-14T18:43:47.877Z,100101.25
2022-09-14T18:46:15.419Z,100104.09
2022-09-14T18:48:45.564Z,100099.50
2022-09-14T18:51:14.085Z,100109.78
2022-09-14T18:53:41.915Z,100107.75
2022-09-14T18:56:10.856Z,100105.59
2022-09-14T18:58:39.817Z,100107.66
2022-09-14T19:01:07.993Z,100107.22
2022-09-14T19:03:35.907Z,100122.69
2022-09-14T19:06:07.317Z,100119.97
2022-09-14T19:08:34.835Z,100124.41
2022-09-14T19:11:09.645Z,100116.97
2022-09-14T19:13:37.339Z,100118.25
2022-09-14T19:16:05.374Z,100128.50
2022-09-14T19:18:33.439Z,100126.16
2022-09-14T19:21:08.109Z,100121.06
2022-09-14T19:23:36.365Z,100131.28
2022-09-14T19:26:08.100Z,100119.56
2022-09-14T19:28:35.682Z,100132.78
2022-09-14T19:31:10.165Z,100129.06
2022-09-14T19:33:39.241Z,100124.72
2022-09-14T19:36:10.761Z,100128.47
2022-09-14T19:38:38.404Z,100121.84
2022-09-14T19:41:06.004Z,100126.88
2022-09-14T19:43:33.641Z,100122.31
2022-09-14T19:46:05.258Z,100128.34
2022-09-14T19:48:33.061Z,100117.34
2022-09-14T19:51:01.157Z,100118.38
2022-09-14T19:53:29.105Z,100118.50
2022-09-14T19:55:56.504Z,100108.72
2022-09-14T19:58:26.164Z,100110.47
2022-09-14T20:00:54.595Z,100113.22
2022-09-14T20:03:22.565Z,100105.22
2022-09-14T20:05:58.949Z,100106.72
2022-09-14T20:08:26.255Z,100101.25
2022-09-14T20:10:53.504Z,100101.25
2022-09-14T20:13:20.866Z,100101.72
2022-09-14T20:15:48.112Z,100104.75
2022-09-14T20:18:15.355Z,100100.75
2022-09-14T20:20:42.713Z,100106.91
2022-09-14T20:23:11.266Z,100107.50
2022-09-14T20:25:38.536Z,100099.66
2022-09-14T20:28:05.727Z,100118.34
2022-09-14T20:30:33.098Z,100111.59
2022-09-14T20:33:00.445Z,100101.59
2022-09-14T20:35:29.607Z,100101.97
2022-09-14T20:37:56.845Z,100100.81
2022-09-14T20:40:24.579Z,100099.75
2022-09-14T20:42:51.815Z,100101.13
2022-09-14T20:45:19.172Z,100100.28
2022-09-14T20:47:46.363Z,100091.97
2022-09-14T20:50:13.775Z,100084.72
2022-09-14T20:52:40.985Z,100090.81
2022-09-14T20:55:08.867Z,100081.97
2022-09-14T20:57:36.014Z,100080.09
2022-09-14T21:00:03.452Z,100077.78
2022-09-14T21:02:31.112Z,100063.81
2022-09-14T21:04:58.288Z,100058.59
2022-09-14T21:07:25.601Z,100062.31
2022-09-14T21:09:53.060Z,100065.09
2022-09-14T21:12:20.282Z,100063.38
2022-09-14T21:14:48.064Z,100062.41
2022-09-14T21:17:17.136Z,100059.13
2022-09-14T21:19:45.433Z,100053.84
2022-09-14T21:22:12.742Z,100055.25
2022-09-14T21:24:40.008Z,100059.28
2022-09-14T21:27:07.771Z,100056.63
2022-09-14T21:29:34.981Z,100057.81
2022-09-14T21:32:06.895Z,100049.47
2022-09-14T21:34:36.197Z,100047.91
2022-09-14T21:37:03.676Z,100057.38
2022-09-14T21:39:31.087Z,100053.31
2022-09-14T21:41:59.652Z,100043.13
2022-09-14T21:44:28.405Z,100035.19
2022-09-14T21:46:55.633Z,100038.63
2022-09-14T21:49:22.908Z,100045.97
2022-09-14T21:51:50.150Z,100042.38
2022-09-14T21:54:17.596Z,100032.63
2022-09-14T21:56:45.503Z,100035.00
2022-09-14T21:59:17.377Z,100033.47
2022-09-14T22:01:45.059Z,100031.81
2022-09-14T22:04:14.130Z,100043.63
2022-09-14T22:06:41.398Z,100045.75
2022-09-14T22:09:08.649Z,100036.81
2022-09-14T22:11:37.087Z,100043.59
2022-09-14T22:14:06.424Z,100041.75
2022-09-14T22:16:35.253Z,100037.19
2022-09-14T22:19:04.580Z,100038.66
2022-09-14T22:21:34.703Z,100038.91
2022-09-14T22:24:03.343Z,100039.94
2022-09-14T22:26:31.573Z,100039.13
2022-09-14T22:28:59.197Z,100033.91
2022-09-14T22:31:27.224Z,100029.72
2022-09-14T22:33:55.375Z,100029.97
2022-09-14T22:36:25.725Z,100036.94
2022-09-14T22:38:59.371Z,100036.28
2022-09-14T22:41:27.661Z,100032.22
2022-09-14T22:43:55.352Z,100034.13
2022-09-14T22:46:23.015Z,100033.03
2022-09-14T22:48:50.898Z,100029.88
2022-09-14T22:51:20.543Z,100033.16
2022-09-14T22:54:06.429Z,100037.22
2022-09-14T22:56:35.409Z,100036.28
2022-09-14T22:59:04.306Z,100036.88
2022-09-14T23:01:32.929Z,100034.09
2022-09-14T23:04:02.025Z,100034.84
2022-09-14T23:06:30.209Z,100027.81
2022-09-14T23:08:57.381Z,100030.22
2022-09-14T23:11:24.800Z,100028.88
2022-09-14T23:13:51.965Z,100016.47
2022-09-14T23:16:20.288Z,100029.75
2022-09-14T23:18:54.708Z,100028.72
2022-09-14T23:21:22.085Z,100028.94
2022-09-14T23:23:53.196Z,100024.25
2022-09-14T23:26:21.011Z,100024.38
2022-09-14T23:29:07.331Z,100037.47
2022-09-14T23:31:35.109Z,100032.03
2022-09-14T23:34:02.941Z,100020.13
2022-09-14T23:36:30.622Z,100013.06
2022-09-14T23:38:58.074Z,100018.72
2022-09-14T23:41:25.826Z,100020.81
2022-09-14T23:43:53.013Z,100017.78
2022-09-14T23:46:20.946Z,100017.13
2022-09-14T23:48:48.237Z,100015.44
2022-09-14T23:51:15.782Z,100009.88
2022-09-14T23:53:43.282Z,100012.31
2022-09-14T23:56:11.075Z,99994.72
2022-09-14T23:58:38.358Z,99994.28
